»·PEaware :: N2RF KRDM-KBOI

N2RF :: KRDM-KBOI

FLIGHT INFORMATION

Flight Status: Arrived
Operator: Privately registered:
United States
More flights under this callsign
Pilot: Guilherme E. (26315)
Aircraft: BEECH AIRCRAFT BARON
(BE58)
More flights by this aircraft type
Origin: KRDM Roberts
United States
Destination: KBOI Boise Air Terminal/Gowen
United States
More flights between these airports :: More routes between these airports
Route: +ILR V330 BOI
File this flight plan on PilotEdge
Remarks: RMK / SIMBRIEF
Altitude:
(Current/Filed)
11,000ft
Speed:
(Current/Filed)
180kts
Departed: 08-Jan-20 08:42 AM
Arrived: 08-Jan-20 09:47 AM
Distance/Time
Traveled:
216nm/1:04
Distance/Time
To Go:
Arrived

Flight Plot

Page will automatically refresh every two minutes.

Flight plan parsing failed; only flown route is shown


Map Options




Map Legend


Flown Route
Filed Route
Departure Airport
Arrival Airport
Navaid (VOR, NDB)
Fix

Horizontal Profiles

Position Reports

Time Latitude Longitude Heading Altitude Ground
Speed
08-Jan-20 08:22 44.259165 -121.157274 299 3060ft 0kts
08-Jan-20 08:23 44.259165 -121.157274 299 3060ft 0kts
08-Jan-20 08:24 44.259165 -121.157274 299 3060ft 0kts
08-Jan-20 08:25 44.259165 -121.157274 299 3060ft 0kts
08-Jan-20 08:26 44.259165 -121.157274 299 3060ft 0kts
08-Jan-20 08:27 44.259165 -121.157274 299 3060ft 0kts
08-Jan-20 08:28 44.259165 -121.157274 299 3060ft 0kts
08-Jan-20 08:29 44.259165 -121.157274 299 3060ft 0kts
08-Jan-20 08:30 44.259165 -121.157274 299 3060ft 0kts
08-Jan-20 08:31 44.259165 -121.157274 299 3060ft 0kts
08-Jan-20 08:32 44.259165 -121.157274 299 3060ft 0kts
08-Jan-20 08:33 44.259165 -121.157274 299 3060ft 0kts
08-Jan-20 08:34 44.259165 -121.157274 299 3060ft 0kts
08-Jan-20 08:35 44.259050 -121.158562 302 3057ft 14kts
08-Jan-20 08:36 44.259608 -121.160498 195 3051ft 0kts
08-Jan-20 08:37 44.259608 -121.160498 195 3051ft 0kts
08-Jan-20 08:38 44.259608 -121.160498 195 3051ft 0kts
08-Jan-20 08:39 44.259608 -121.160498 195 3051ft 0kts
08-Jan-20 08:40 44.258759 -121.160803 119 3051ft 0kts
08-Jan-20 08:41 44.249795 -121.140834 123 3396ft 125kts
08-Jan-20 08:42 44.239809 -121.094193 116 4797ft 130kts
08-Jan-20 08:43 44.222850 -121.040784 115 5663ft 165kts
08-Jan-20 08:44 44.204609 -120.979011 113 6479ft 176kts
08-Jan-20 08:45 44.186172 -120.915505 113 7280ft 176kts
08-Jan-20 08:46 44.167633 -120.851817 113 8084ft 177kts
08-Jan-20 08:47 44.149077 -120.788269 113 8886ft 176kts
08-Jan-20 08:48 44.130452 -120.724655 114 9692ft 176kts
08-Jan-20 08:49 44.111943 -120.661591 114 10497ft 175kts
08-Jan-20 08:50 44.093558 -120.599089 114 11302ft 174kts
08-Jan-20 08:51 44.073770 -120.532121 113 11506ft 203kts
08-Jan-20 08:52 44.051199 -120.455973 113 11503ft 217kts
08-Jan-20 08:53 44.027849 -120.377345 113 11502ft 220kts
08-Jan-20 08:54 44.004371 -120.298411 114 11498ft 220kts
08-Jan-20 08:55 43.980776 -120.219319 114 11496ft 220kts
08-Jan-20 08:56 43.957055 -120.140264 114 11492ft 220kts
08-Jan-20 08:57 43.933573 -120.061766 114 11493ft 218kts
08-Jan-20 08:58 43.910057 -119.983996 113 11501ft 217kts
08-Jan-20 08:59 43.887079 -119.906999 112 11509ft 217kts
08-Jan-20 09:00 43.861950 -119.825982 114 11017ft 229kts
08-Jan-20 09:01 43.837847 -119.746089 114 11025ft 219kts
08-Jan-20 09:02 43.814115 -119.668209 114 11027ft 217kts
08-Jan-20 09:03 43.790668 -119.591041 115 11028ft 217kts
08-Jan-20 09:04 43.766649 -119.513593 114 11037ft 216kts
08-Jan-20 09:05 43.742968 -119.436528 114 11037ft 217kts
08-Jan-20 09:06 43.719006 -119.358917 114 11038ft 217kts
08-Jan-20 09:07 43.695112 -119.281770 115 11034ft 216kts
08-Jan-20 09:08 43.671252 -119.204976 115 11034ft 216kts
08-Jan-20 09:09 43.647532 -119.128858 115 11035ft 216kts
08-Jan-20 09:10 43.623594 -119.052268 115 11035ft 216kts
08-Jan-20 09:11 43.599641 -118.975851 115 11035ft 217kts
08-Jan-20 09:12 43.592570 -118.892571 88 11036ft 221kts
08-Jan-20 09:13 43.592502 -118.806674 87 11036ft 224kts
08-Jan-20 09:14 43.592215 -118.719958 88 11037ft 226kts
08-Jan-20 09:15 43.591780 -118.632314 88 11037ft 227kts
08-Jan-20 09:16 43.591276 -118.544789 88 11038ft 227kts
08-Jan-20 09:17 43.590704 -118.456922 88 11038ft 227kts
08-Jan-20 09:18 43.590065 -118.368827 87 11021ft 228kts
08-Jan-20 09:19 43.589375 -118.282457 88 11015ft 227kts
08-Jan-20 09:20 43.588610 -118.194807 88 11015ft 226kts
08-Jan-20 09:21 43.587774 -118.107005 88 11016ft 226kts
08-Jan-20 09:22 43.586872 -118.019434 88 11020ft 226kts
08-Jan-20 09:23 43.585907 -117.932267 88 11027ft 226kts
08-Jan-20 09:24 43.584872 -117.844746 88 11034ft 226kts
08-Jan-20 09:25 43.583766 -117.757082 87 11037ft 226kts
08-Jan-20 09:26 43.582592 -117.669465 87 11037ft 226kts
08-Jan-20 09:27 43.581355 -117.582027 86 11037ft 225kts
08-Jan-20 09:28 43.580059 -117.494993 86 11038ft 225kts
08-Jan-20 09:29 43.578685 -117.407215 86 11038ft 225kts
08-Jan-20 09:30 43.577270 -117.320106 87 11032ft 225kts
08-Jan-20 09:31 43.575772 -117.233532 87 11013ft 225kts
08-Jan-20 09:32 43.574208 -117.146419 87 11011ft 224kts
08-Jan-20 09:33 43.572576 -117.059948 88 11010ft 223kts
08-Jan-20 09:34 43.570977 -116.973577 87 10374ft 224kts
08-Jan-20 09:35 43.570685 -116.888742 87 9168ft 216kts
08-Jan-20 09:36 43.570205 -116.807097 87 7961ft 208kts
08-Jan-20 09:37 43.569583 -116.727978 87 6756ft 202kts
08-Jan-20 09:38 43.568910 -116.649779 88 5398ft 202kts
08-Jan-20 09:39 43.568254 -116.578300 88 5002ft 163kts
08-Jan-20 09:40 43.567724 -116.519780 88 5009ft 144kts
08-Jan-20 09:41 43.567185 -116.465948 87 5013ft 137kts
08-Jan-20 09:42 43.566464 -116.413930 88 4540ft 124kts
08-Jan-20 09:43 43.566154 -116.360754 88 4520ft 152kts
08-Jan-20 09:44 43.566565 -116.299952 81 4516ft 161kts
08-Jan-20 09:45 43.574817 -116.256658 115 2997ft 105kts
08-Jan-20 09:46 43.566866 -116.233584 140 2831ft 11kts
08-Jan-20 09:47 43.565933 -116.239482 264 2819ft 25kts
08-Jan-20 09:49 43.566695 -116.244024 277 2810ft 0kts

Navigation Log

Ident Type
Flight plan parsing failed, navigation log unavailable